sensor_id;sensor_type;location;lat;lon;timestamp;P1;durP1;ratioP1;P2;durP2;ratioP2
76597;SDS011;65486;53.144;18.134;2022-11-30T00:01:29;45.40;;;18.80;;
76597;SDS011;65486;53.144;18.134;2022-11-30T00:03:58;53.70;;;19.40;;
76597;SDS011;65486;53.144;18.134;2022-11-30T00:06:25;48.80;;;20.10;;
76597;SDS011;65486;53.144;18.134;2022-11-30T00:08:53;42.30;;;19.10;;
76597;SDS011;65486;53.144;18.134;2022-11-30T00:11:24;42.00;;;17.40;;
76597;SDS011;65486;53.144;18.134;2022-11-30T00:13:55;48.00;;;20.30;;
76597;SDS011;65486;53.144;18.134;2022-11-30T00:16:23;40.20;;;17.20;;
76597;SDS011;65486;53.144;18.134;2022-11-30T00:18:50;48.00;;;19.70;;
76597;SDS011;65486;53.144;18.134;2022-11-30T00:21:17;51.30;;;19.50;;
76597;SDS011;65486;53.144;18.134;2022-11-30T00:23:48;45.90;;;18.30;;
76597;SDS011;65486;53.144;18.134;2022-11-30T00:26:23;43.70;;;18.80;;
76597;SDS011;65486;53.144;18.134;2022-11-30T00:28:50;45.30;;;15.70;;
76597;SDS011;65486;53.144;18.134;2022-11-30T00:31:18;44.30;;;19.10;;
76597;SDS011;65486;53.144;18.134;2022-11-30T00:33:46;43.10;;;18.50;;
76597;SDS011;65486;53.144;18.134;2022-11-30T00:36:17;32.70;;;14.00;;
76597;SDS011;65486;53.144;18.134;2022-11-30T00:38:45;45.40;;;18.30;;
76597;SDS011;65486;53.144;18.134;2022-11-30T00:41:16;54.30;;;20.40;;
76597;SDS011;65486;53.144;18.134;2022-11-30T00:43:45;47.40;;;19.50;;
76597;SDS011;65486;53.144;18.134;2022-11-30T00:46:12;48.20;;;19.70;;
76597;SDS011;65486;53.144;18.134;2022-11-30T00:48:42;42.70;;;18.30;;
76597;SDS011;65486;53.144;18.134;2022-11-30T00:51:10;44.90;;;19.40;;
76597;SDS011;65486;53.144;18.134;2022-11-30T00:53:39;40.80;;;16.70;;
76597;SDS011;65486;53.144;18.134;2022-11-30T00:56:08;42.30;;;16.30;;
76597;SDS011;65486;53.144;18.134;2022-11-30T00:58:36;50.00;;;19.20;;
76597;SDS011;65486;53.144;18.134;2022-11-30T01:01:03;51.10;;;19.40;;
76597;SDS011;65486;53.144;18.134;2022-11-30T01:03:31;46.60;;;19.10;;
76597;SDS011;65486;53.144;18.134;2022-11-30T01:06:07;46.50;;;17.10;;
76597;SDS011;65486;53.144;18.134;2022-11-30T01:08:36;48.10;;;18.70;;
76597;SDS011;65486;53.144;18.134;2022-11-30T01:11:16;47.90;;;19.00;;
76597;SDS011;65486;53.144;18.134;2022-11-30T01:13:51;42.30;;;17.70;;
76597;SDS011;65486;53.144;18.134;2022-11-30T01:16:23;48.90;;;19.30;;
76597;SDS011;65486;53.144;18.134;2022-11-30T01:18:59;51.90;;;19.10;;
76597;SDS011;65486;53.144;18.134;2022-11-30T01:21:29;46.40;;;18.40;;
76597;SDS011;65486;53.144;18.134;2022-11-30T01:23:58;41.70;;;17.90;;
76597;SDS011;65486;53.144;18.134;2022-11-30T01:26:25;47.80;;;19.30;;
76597;SDS011;65486;53.144;18.134;2022-11-30T01:28:52;45.70;;;19.70;;
76597;SDS011;65486;53.144;18.134;2022-11-30T01:31:21;44.60;;;19.00;;
76597;SDS011;65486;53.144;18.134;2022-11-30T01:33:54;48.80;;;19.70;;
76597;SDS011;65486;53.144;18.134;2022-11-30T01:36:24;45.80;;;18.10;;
76597;SDS011;65486;53.144;18.134;2022-11-30T01:38:53;43.70;;;18.50;;
76597;SDS011;65486;53.144;18.134;2022-11-30T01:41:28;40.40;;;16.70;;
76597;SDS011;65486;53.144;18.134;2022-11-30T01:46:57;41.70;;;17.50;;
76597;SDS011;65486;53.144;18.134;2022-11-30T01:49:31;44.00;;;17.10;;
76597;SDS011;65486;53.144;18.134;2022-11-30T01:54:50;43.90;;;19.20;;
76597;SDS011;65486;53.144;18.134;2022-11-30T02:00:49;41.50;;;18.00;;
76597;SDS011;65486;53.144;18.134;2022-11-30T02:06:05;44.60;;;18.10;;
76597;SDS011;65486;53.144;18.134;2022-11-30T02:08:33;47.80;;;19.50;;
76597;SDS011;65486;53.144;18.134;2022-11-30T02:11:03;41.00;;;17.60;;
76597;SDS011;65486;53.144;18.134;2022-11-30T02:13:51;39.10;;;16.50;;
76597;SDS011;65486;53.144;18.134;2022-11-30T02:27:39;44.10;;;17.50;;
76597;SDS011;65486;53.144;18.134;2022-11-30T02:30:30;41.00;;;18.00;;
76597;SDS011;65486;53.144;18.134;2022-11-30T02:33:03;35.10;;;15.80;;
76597;SDS011;65486;53.144;18.134;2022-11-30T02:35:36;37.50;;;15.90;;
76597;SDS011;65486;53.144;18.134;2022-11-30T02:38:09;39.80;;;16.10;;
76597;SDS011;65486;53.144;18.134;2022-11-30T02:40:39;31.10;;;14.40;;
76597;SDS011;65486;53.144;18.134;2022-11-30T02:43:09;27.00;;;11.50;;
76597;SDS011;65486;53.144;18.134;2022-11-30T02:45:43;38.10;;;16.90;;
76597;SDS011;65486;53.144;18.134;2022-11-30T02:48:21;39.00;;;15.40;;
76597;SDS011;65486;53.144;18.134;2022-11-30T02:50:56;37.30;;;15.70;;
76597;SDS011;65486;53.144;18.134;2022-11-30T02:53:27;38.20;;;16.20;;
76597;SDS011;65486;53.144;18.134;2022-11-30T02:55:55;35.00;;;14.90;;
76597;SDS011;65486;53.144;18.134;2022-11-30T02:58:24;34.50;;;15.80;;
76597;SDS011;65486;53.144;18.134;2022-11-30T03:00:51;32.60;;;14.50;;
76597;SDS011;65486;53.144;18.134;2022-11-30T03:03:19;39.30;;;16.20;;
76597;SDS011;65486;53.144;18.134;2022-11-30T03:05:46;45.30;;;18.90;;
76597;SDS011;65486;53.144;18.134;2022-11-30T03:08:13;43.90;;;17.80;;
76597;SDS011;65486;53.144;18.134;2022-11-30T03:10:47;41.00;;;17.90;;
76597;SDS011;65486;53.144;18.134;2022-11-30T03:13:14;38.30;;;17.20;;
76597;SDS011;65486;53.144;18.134;2022-11-30T03:15:42;44.50;;;19.40;;
76597;SDS011;65486;53.144;18.134;2022-11-30T03:18:09;44.60;;;18.60;;
76597;SDS011;65486;53.144;18.134;2022-11-30T03:20:39;46.30;;;20.10;;
76597;SDS011;65486;53.144;18.134;2022-11-30T03:23:12;42.60;;;18.50;;
76597;SDS011;65486;53.144;18.134;2022-11-30T03:25:39;45.80;;;18.30;;
76597;SDS011;65486;53.144;18.134;2022-11-30T03:28:07;40.70;;;17.80;;
76597;SDS011;65486;53.144;18.134;2022-11-30T03:30:34;48.10;;;18.70;;
76597;SDS011;65486;53.144;18.134;2022-11-30T03:33:01;45.00;;;19.80;;
76597;SDS011;65486;53.144;18.134;2022-11-30T03:35:28;48.10;;;19.70;;
76597;SDS011;65486;53.144;18.134;2022-11-30T03:37:55;49.00;;;19.40;;
76597;SDS011;65486;53.144;18.134;2022-11-30T03:40:26;46.20;;;19.50;;
76597;SDS011;65486;53.144;18.134;2022-11-30T03:42:55;47.00;;;20.80;;
76597;SDS011;65486;53.144;18.134;2022-11-30T03:45:21;46.00;;;18.10;;
76597;SDS011;65486;53.144;18.134;2022-11-30T03:47:49;46.80;;;20.50;;
76597;SDS011;65486;53.144;18.134;2022-11-30T03:50:16;45.30;;;19.50;;
76597;SDS011;65486;53.144;18.134;2022-11-30T03:52:46;42.80;;;19.30;;
76597;SDS011;65486;53.144;18.134;2022-11-30T03:55:13;54.80;;;22.00;;
76597;SDS011;65486;53.144;18.134;2022-11-30T03:57:41;49.20;;;19.80;;
76597;SDS011;65486;53.144;18.134;2022-11-30T04:00:07;50.80;;;21.30;;
76597;SDS011;65486;53.144;18.134;2022-11-30T04:02:42;34.30;;;13.50;;
76597;SDS011;65486;53.144;18.134;2022-11-30T04:05:09;54.40;;;21.60;;
76597;SDS011;65486;53.144;18.134;2022-11-30T04:07:36;47.90;;;19.60;;
76597;SDS011;65486;53.144;18.134;2022-11-30T04:10:03;48.60;;;19.50;;
76597;SDS011;65486;53.144;18.134;2022-11-30T04:12:31;49.10;;;20.50;;
76597;SDS011;65486;53.144;18.134;2022-11-30T04:14:58;44.40;;;18.70;;
76597;SDS011;65486;53.144;18.134;2022-11-30T04:17:25;47.30;;;20.40;;
76597;SDS011;65486;53.144;18.134;2022-11-30T04:19:53;48.20;;;20.90;;
76597;SDS011;65486;53.144;18.134;2022-11-30T04:22:21;41.40;;;16.40;;
76597;SDS011;65486;53.144;18.134;2022-11-30T04:24:52;49.30;;;20.70;;
76597;SDS011;65486;53.144;18.134;2022-11-30T04:27:19;52.80;;;22.00;;
76597;SDS011;65486;53.144;18.134;2022-11-30T04:29:46;46.20;;;20.60;;
76597;SDS011;65486;53.144;18.134;2022-11-30T04:32:12;47.20;;;20.70;;
76597;SDS011;65486;53.144;18.134;2022-11-30T04:34:39;48.10;;;20.50;;
76597;SDS011;65486;53.144;18.134;2022-11-30T04:37:09;49.40;;;22.20;;
76597;SDS011;65486;53.144;18.134;2022-11-30T04:39:37;47.80;;;20.90;;
76597;SDS011;65486;53.144;18.134;2022-11-30T04:42:05;47.90;;;19.20;;
76597;SDS011;65486;53.144;18.134;2022-11-30T04:44:33;47.50;;;20.50;;
76597;SDS011;65486;53.144;18.134;2022-11-30T04:47:00;45.10;;;20.30;;
76597;SDS011;65486;53.144;18.134;2022-11-30T04:49:28;46.70;;;20.30;;
76597;SDS011;65486;53.144;18.134;2022-11-30T04:51:55;51.20;;;21.70;;
76597;SDS011;65486;53.144;18.134;2022-11-30T04:54:24;54.00;;;22.50;;
76597;SDS011;65486;53.144;18.134;2022-11-30T04:56:50;54.20;;;20.90;;
76597;SDS011;65486;53.144;18.134;2022-11-30T04:59:17;50.90;;;21.30;;
76597;SDS011;65486;53.144;18.134;2022-11-30T05:01:44;48.50;;;21.30;;
76597;SDS011;65486;53.144;18.134;2022-11-30T05:04:13;36.20;;;14.70;;
76597;SDS011;65486;53.144;18.134;2022-11-30T05:06:40;50.80;;;20.60;;
76597;SDS011;65486;53.144;18.134;2022-11-30T05:09:07;53.00;;;21.90;;
76597;SDS011;65486;53.144;18.134;2022-11-30T05:11:34;57.60;;;23.90;;
76597;SDS011;65486;53.144;18.134;2022-11-30T05:14:01;59.10;;;24.00;;
76597;SDS011;65486;53.144;18.134;2022-11-30T05:16:28;48.10;;;19.90;;
76597;SDS011;65486;53.144;18.134;2022-11-30T05:18:57;55.20;;;23.00;;
76597;SDS011;65486;53.144;18.134;2022-11-30T05:21:24;56.50;;;23.00;;
76597;SDS011;65486;53.144;18.134;2022-11-30T05:23:52;50.20;;;19.70;;
76597;SDS011;65486;53.144;18.134;2022-11-30T05:26:19;55.00;;;21.80;;
76597;SDS011;65486;53.144;18.134;2022-11-30T05:28:45;55.60;;;22.80;;
76597;SDS011;65486;53.144;18.134;2022-11-30T05:31:14;52.50;;;20.50;;
76597;SDS011;65486;53.144;18.134;2022-11-30T05:33:41;59.00;;;23.00;;
76597;SDS011;65486;53.144;18.134;2022-11-30T05:36:09;53.50;;;23.20;;
76597;SDS011;65486;53.144;18.134;2022-11-30T05:38:35;53.10;;;22.20;;
76597;SDS011;65486;53.144;18.134;2022-11-30T05:41:03;58.40;;;22.30;;
76597;SDS011;65486;53.144;18.134;2022-11-30T05:43:33;53.00;;;20.70;;
76597;SDS011;65486;53.144;18.134;2022-11-30T05:46:00;60.40;;;23.30;;
76597;SDS011;65486;53.144;18.134;2022-11-30T05:48:30;60.50;;;24.30;;
76597;SDS011;65486;53.144;18.134;2022-11-30T05:51:31;54.70;;;22.80;;
76597;SDS011;65486;53.144;18.134;2022-11-30T05:53:50;51.70;;;21.30;;
76597;SDS011;65486;53.144;18.134;2022-11-30T05:56:18;52.00;;;21.60;;
76597;SDS011;65486;53.144;18.134;2022-11-30T05:58:46;39.30;;;16.30;;
76597;SDS011;65486;53.144;18.134;2022-11-30T06:01:20;55.00;;;20.80;;
76597;SDS011;65486;53.144;18.134;2022-11-30T06:03:53;54.00;;;21.30;;
76597;SDS011;65486;53.144;18.134;2022-11-30T06:06:23;47.20;;;18.70;;
76597;SDS011;65486;53.144;18.134;2022-11-30T06:08:55;50.90;;;20.10;;
76597;SDS011;65486;53.144;18.134;2022-11-30T06:11:22;55.80;;;20.90;;
76597;SDS011;65486;53.144;18.134;2022-11-30T06:13:49;52.30;;;21.20;;
76597;SDS011;65486;53.144;18.134;2022-11-30T06:16:16;56.90;;;21.40;;
76597;SDS011;65486;53.144;18.134;2022-11-30T06:18:45;56.30;;;22.50;;
76597;SDS011;65486;53.144;18.134;2022-11-30T06:21:11;50.70;;;20.00;;
76597;SDS011;65486;53.144;18.134;2022-11-30T06:23:39;57.10;;;22.30;;
76597;SDS011;65486;53.144;18.134;2022-11-30T06:26:21;57.70;;;21.10;;
76597;SDS011;65486;53.144;18.134;2022-11-30T06:28:48;49.30;;;19.50;;
76597;SDS011;65486;53.144;18.134;2022-11-30T06:31:21;64.90;;;21.20;;
76597;SDS011;65486;53.144;18.134;2022-11-30T06:33:48;57.30;;;21.50;;
76597;SDS011;65486;53.144;18.134;2022-11-30T06:36:21;54.60;;;22.30;;
76597;SDS011;65486;53.144;18.134;2022-11-30T06:38:49;52.20;;;20.80;;
76597;SDS011;65486;53.144;18.134;2022-11-30T06:41:17;51.50;;;20.60;;
76597;SDS011;65486;53.144;18.134;2022-11-30T06:43:44;53.80;;;21.40;;
76597;SDS011;65486;53.144;18.134;2022-11-30T06:46:11;60.50;;;20.80;;
76597;SDS011;65486;53.144;18.134;2022-11-30T06:48:38;63.00;;;23.70;;
76597;SDS011;65486;53.144;18.134;2022-11-30T06:51:08;52.20;;;20.50;;
76597;SDS011;65486;53.144;18.134;2022-11-30T06:53:36;56.50;;;22.00;;
76597;SDS011;65486;53.144;18.134;2022-11-30T06:56:03;56.80;;;21.80;;
76597;SDS011;65486;53.144;18.134;2022-11-30T06:58:33;49.30;;;18.90;;
76597;SDS011;65486;53.144;18.134;2022-11-30T07:01:05;54.30;;;20.50;;
76597;SDS011;65486;53.144;18.134;2022-11-30T07:03:33;60.20;;;22.90;;
76597;SDS011;65486;53.144;18.134;2022-11-30T07:06:04;58.90;;;22.90;;
76597;SDS011;65486;53.144;18.134;2022-11-30T07:08:32;51.10;;;20.20;;
76597;SDS011;65486;53.144;18.134;2022-11-30T07:10:59;62.00;;;22.60;;
76597;SDS011;65486;53.144;18.134;2022-11-30T07:13:26;56.90;;;22.30;;
76597;SDS011;65486;53.144;18.134;2022-11-30T07:15:53;64.10;;;24.10;;
76597;SDS011;65486;53.144;18.134;2022-11-30T07:18:21;62.60;;;23.00;;
76597;SDS011;65486;53.144;18.134;2022-11-30T07:20:48;61.80;;;23.60;;
76597;SDS011;65486;53.144;18.134;2022-11-30T07:23:16;61.10;;;23.30;;
76597;SDS011;65486;53.144;18.134;2022-11-30T07:26:01;64.60;;;23.70;;
76597;SDS011;65486;53.144;18.134;2022-11-30T07:28:32;48.90;;;17.40;;
76597;SDS011;65486;53.144;18.134;2022-11-30T07:31:01;61.40;;;24.60;;
76597;SDS011;65486;53.144;18.134;2022-11-30T07:33:39;67.80;;;24.50;;
76597;SDS011;65486;53.144;18.134;2022-11-30T07:36:06;65.70;;;22.70;;
76597;SDS011;65486;53.144;18.134;2022-11-30T07:38:34;60.70;;;24.00;;
76597;SDS011;65486;53.144;18.134;2022-11-30T07:41:01;53.70;;;20.40;;
76597;SDS011;65486;53.144;18.134;2022-11-30T07:43:27;57.00;;;21.90;;
76597;SDS011;65486;53.144;18.134;2022-11-30T07:45:54;56.20;;;21.50;;
76597;SDS011;65486;53.144;18.134;2022-11-30T07:48:21;59.30;;;23.90;;
76597;SDS011;65486;53.144;18.134;2022-11-30T07:50:49;60.20;;;23.70;;
76597;SDS011;65486;53.144;18.134;2022-11-30T07:53:16;58.20;;;24.30;;
76597;SDS011;65486;53.144;18.134;2022-11-30T07:55:47;53.50;;;22.10;;
76597;SDS011;65486;53.144;18.134;2022-11-30T07:58:14;54.20;;;21.50;;
76597;SDS011;65486;53.144;18.134;2022-11-30T08:00:41;44.70;;;17.70;;
76597;SDS011;65486;53.144;18.134;2022-11-30T08:03:08;47.40;;;18.40;;
76597;SDS011;65486;53.144;18.134;2022-11-30T08:05:35;51.50;;;20.30;;
76597;SDS011;65486;53.144;18.134;2022-11-30T08:08:01;54.70;;;21.30;;
76597;SDS011;65486;53.144;18.134;2022-11-30T08:10:28;51.70;;;20.60;;
76597;SDS011;65486;53.144;18.134;2022-11-30T08:12:55;50.80;;;20.70;;
76597;SDS011;65486;53.144;18.134;2022-11-30T08:15:24;48.20;;;19.40;;
76597;SDS011;65486;53.144;18.134;2022-11-30T08:17:50;51.60;;;21.30;;
76597;SDS011;65486;53.144;18.134;2022-11-30T08:20:20;52.10;;;21.50;;
76597;SDS011;65486;53.144;18.134;2022-11-30T08:22:48;52.00;;;20.70;;
76597;SDS011;65486;53.144;18.134;2022-11-30T08:25:15;60.20;;;22.70;;
76597;SDS011;65486;53.144;18.134;2022-11-30T08:27:42;54.20;;;22.90;;
76597;SDS011;65486;53.144;18.134;2022-11-30T08:30:09;59.10;;;22.70;;
76597;SDS011;65486;53.144;18.134;2022-11-30T08:32:37;51.10;;;21.40;;
76597;SDS011;65486;53.144;18.134;2022-11-30T08:35:04;50.40;;;20.70;;
76597;SDS011;65486;53.144;18.134;2022-11-30T08:37:37;52.90;;;21.40;;
76597;SDS011;65486;53.144;18.134;2022-11-30T08:40:07;47.00;;;17.80;;
76597;SDS011;65486;53.144;18.134;2022-11-30T08:42:36;53.70;;;21.80;;
76597;SDS011;65486;53.144;18.134;2022-11-30T08:45:03;54.00;;;22.20;;
76597;SDS011;65486;53.144;18.134;2022-11-30T08:47:30;53.80;;;21.00;;
76597;SDS011;65486;53.144;18.134;2022-11-30T08:49:57;51.70;;;21.20;;
76597;SDS011;65486;53.144;18.134;2022-11-30T08:52:24;53.90;;;21.90;;
76597;SDS011;65486;53.144;18.134;2022-11-30T08:54:51;53.00;;;22.00;;
76597;SDS011;65486;53.144;18.134;2022-11-30T08:57:18;63.60;;;23.30;;
76597;SDS011;65486;53.144;18.134;2022-11-30T08:59:46;56.60;;;22.80;;
76597;SDS011;65486;53.144;18.134;2022-11-30T09:02:14;56.40;;;22.30;;
76597;SDS011;65486;53.144;18.134;2022-11-30T09:04:43;51.90;;;20.00;;
76597;SDS011;65486;53.144;18.134;2022-11-30T09:07:10;58.00;;;23.60;;
76597;SDS011;65486;53.144;18.134;2022-11-30T09:09:37;53.30;;;21.20;;
76597;SDS011;65486;53.144;18.134;2022-11-30T09:12:05;54.30;;;22.30;;
76597;SDS011;65486;53.144;18.134;2022-11-30T09:14:32;53.10;;;21.70;;
76597;SDS011;65486;53.144;18.134;2022-11-30T09:16:59;64.30;;;24.70;;
76597;SDS011;65486;53.144;18.134;2022-11-30T09:19:26;57.20;;;22.60;;
76597;SDS011;65486;53.144;18.134;2022-11-30T09:21:53;55.10;;;22.10;;
76597;SDS011;65486;53.144;18.134;2022-11-30T09:24:19;55.40;;;22.30;;
76597;SDS011;65486;53.144;18.134;2022-11-30T09:26:47;54.30;;;21.30;;
76597;SDS011;65486;53.144;18.134;2022-11-30T09:29:14;51.10;;;21.00;;
76597;SDS011;65486;53.144;18.134;2022-11-30T09:31:41;44.40;;;18.20;;
76597;SDS011;65486;53.144;18.134;2022-11-30T09:34:08;62.20;;;24.10;;
76597;SDS011;65486;53.144;18.134;2022-11-30T09:36:38;57.60;;;23.00;;
76597;SDS011;65486;53.144;18.134;2022-11-30T09:39:05;55.20;;;22.50;;
76597;SDS011;65486;53.144;18.134;2022-11-30T09:41:48;52.00;;;21.60;;
76597;SDS011;65486;53.144;18.134;2022-11-30T09:49:47;53.40;;;22.10;;
76597;SDS011;65486;53.144;18.134;2022-11-30T09:52:23;56.50;;;22.70;;
76597;SDS011;65486;53.144;18.134;2022-11-30T09:55:00;49.10;;;19.30;;
76597;SDS011;65486;53.144;18.134;2022-11-30T10:00:09;48.60;;;20.30;;
76597;SDS011;65486;53.144;18.134;2022-11-30T10:02:42;50.20;;;20.90;;
76597;SDS011;65486;53.144;18.134;2022-11-30T10:05:14;58.50;;;22.30;;
76597;SDS011;65486;53.144;18.134;2022-11-30T10:30:18;41.10;;;18.60;;
76597;SDS011;65486;53.144;18.134;2022-11-30T10:32:50;50.30;;;20.30;;
76597;SDS011;65486;53.144;18.134;2022-11-30T10:38:23;45.80;;;19.50;;
76597;SDS011;65486;53.144;18.134;2022-11-30T10:40:56;44.30;;;19.00;;
76597;SDS011;65486;53.144;18.134;2022-11-30T10:46:28;45.70;;;20.20;;
76597;SDS011;65486;53.144;18.134;2022-11-30T10:51:42;53.10;;;21.70;;
76597;SDS011;65486;53.144;18.134;2022-11-30T10:54:17;49.60;;;20.00;;
76597;SDS011;65486;53.144;18.134;2022-11-30T10:56:47;47.80;;;20.40;;
76597;SDS011;65486;53.144;18.134;2022-11-30T10:59:24;43.00;;;18.00;;
76597;SDS011;65486;53.144;18.134;2022-11-30T11:01:59;46.00;;;19.70;;
76597;SDS011;65486;53.144;18.134;2022-11-30T11:04:26;41.10;;;16.30;;
76597;SDS011;65486;53.144;18.134;2022-11-30T11:06:54;47.60;;;20.70;;
76597;SDS011;65486;53.144;18.134;2022-11-30T11:09:34;48.40;;;20.40;;
76597;SDS011;65486;53.144;18.134;2022-11-30T11:12:23;51.40;;;21.00;;
76597;SDS011;65486;53.144;18.134;2022-11-30T11:17:34;40.20;;;16.70;;
76597;SDS011;65486;53.144;18.134;2022-11-30T11:20:01;44.20;;;19.00;;
76597;SDS011;65486;53.144;18.134;2022-11-30T11:22:28;44.10;;;20.20;;
76597;SDS011;65486;53.144;18.134;2022-11-30T11:25:10;44.80;;;19.30;;
76597;SDS011;65486;53.144;18.134;2022-11-30T11:27:50;32.20;;;14.10;;
76597;SDS011;65486;53.144;18.134;2022-11-30T11:33:03;39.10;;;17.80;;
76597;SDS011;65486;53.144;18.134;2022-11-30T11:40:51;38.60;;;17.50;;
76597;SDS011;65486;53.144;18.134;2022-11-30T11:43:31;27.20;;;12.80;;
76597;SDS011;65486;53.144;18.134;2022-11-30T11:46:08;41.40;;;18.20;;
76597;SDS011;65486;53.144;18.134;2022-11-30T11:48:39;42.80;;;19.10;;
76597;SDS011;65486;53.144;18.134;2022-11-30T11:51:11;37.10;;;17.00;;
76597;SDS011;65486;53.144;18.134;2022-11-30T11:53:42;36.30;;;16.50;;
76597;SDS011;65486;53.144;18.134;2022-11-30T11:56:24;37.60;;;17.00;;
76597;SDS011;65486;53.144;18.134;2022-11-30T11:59:00;37.40;;;17.30;;
76597;SDS011;65486;53.144;18.134;2022-11-30T12:04:47;35.40;;;15.40;;
76597;SDS011;65486;53.144;18.134;2022-11-30T12:12:48;36.40;;;16.70;;
76597;SDS011;65486;53.144;18.134;2022-11-30T12:15:15;35.50;;;17.00;;
76597;SDS011;65486;53.144;18.134;2022-11-30T12:18:28;32.20;;;15.70;;
76597;SDS011;65486;53.144;18.134;2022-11-30T12:21:01;38.50;;;18.70;;
76597;SDS011;65486;53.144;18.134;2022-11-30T12:33:03;35.80;;;16.80;;
76597;SDS011;65486;53.144;18.134;2022-11-30T12:41:06;35.30;;;16.40;;
76597;SDS011;65486;53.144;18.134;2022-11-30T12:44:02;35.70;;;16.00;;
76597;SDS011;65486;53.144;18.134;2022-11-30T13:03:54;31.80;;;16.00;;
76597;SDS011;65486;53.144;18.134;2022-11-30T13:06:39;26.00;;;11.70;;
76597;SDS011;65486;53.144;18.134;2022-11-30T13:12:04;34.50;;;16.70;;
76597;SDS011;65486;53.144;18.134;2022-11-30T13:14:37;34.00;;;16.10;;
76597;SDS011;65486;53.144;18.134;2022-11-30T13:17:06;29.30;;;13.80;;
76597;SDS011;65486;53.144;18.134;2022-11-30T13:19:47;32.50;;;14.40;;
76597;SDS011;65486;53.144;18.134;2022-11-30T13:22:30;34.30;;;16.00;;
76597;SDS011;65486;53.144;18.134;2022-11-30T13:27:46;34.20;;;16.00;;
76597;SDS011;65486;53.144;18.134;2022-11-30T13:30:26;37.00;;;16.70;;
76597;SDS011;65486;53.144;18.134;2022-11-30T13:41:40;31.60;;;14.30;;
76597;SDS011;65486;53.144;18.134;2022-11-30T13:44:25;39.30;;;16.70;;
76597;SDS011;65486;53.144;18.134;2022-11-30T13:47:00;33.70;;;16.40;;
76597;SDS011;65486;53.144;18.134;2022-11-30T13:49:31;31.60;;;15.40;;
76597;SDS011;65486;53.144;18.134;2022-11-30T13:52:03;33.30;;;16.10;;
76597;SDS011;65486;53.144;18.134;2022-11-30T13:54:50;28.20;;;13.10;;
76597;SDS011;65486;53.144;18.134;2022-11-30T14:03:14;31.90;;;14.50;;
76597;SDS011;65486;53.144;18.134;2022-11-30T14:05:49;32.80;;;14.60;;
76597;SDS011;65486;53.144;18.134;2022-11-30T14:10:54;34.30;;;15.70;;
76597;SDS011;65486;53.144;18.134;2022-11-30T14:13:54;36.70;;;17.10;;
76597;SDS011;65486;53.144;18.134;2022-11-30T14:16:29;38.90;;;17.80;;
76597;SDS011;65486;53.144;18.134;2022-11-30T14:19:17;37.20;;;16.50;;
76597;SDS011;65486;53.144;18.134;2022-11-30T14:21:56;34.60;;;16.60;;
76597;SDS011;65486;53.144;18.134;2022-11-30T14:24:27;33.90;;;16.50;;
76597;SDS011;65486;53.144;18.134;2022-11-30T14:26:56;38.20;;;17.30;;
76597;SDS011;65486;53.144;18.134;2022-11-30T14:29:26;30.40;;;14.70;;
76597;SDS011;65486;53.144;18.134;2022-11-30T14:32:09;35.60;;;17.40;;
76597;SDS011;65486;53.144;18.134;2022-11-30T14:34:51;31.90;;;14.80;;
76597;SDS011;65486;53.144;18.134;2022-11-30T14:37:25;36.20;;;16.80;;
76597;SDS011;65486;53.144;18.134;2022-11-30T14:40:00;32.60;;;15.90;;
76597;SDS011;65486;53.144;18.134;2022-11-30T14:42:33;32.30;;;15.50;;
76597;SDS011;65486;53.144;18.134;2022-11-30T14:45:12;33.90;;;15.80;;
76597;SDS011;65486;53.144;18.134;2022-11-30T14:47:49;28.70;;;13.50;;
76597;SDS011;65486;53.144;18.134;2022-11-30T14:50:20;30.80;;;14.50;;
76597;SDS011;65486;53.144;18.134;2022-11-30T15:01:28;27.00;;;13.90;;
76597;SDS011;65486;53.144;18.134;2022-11-30T15:04:18;24.80;;;12.40;;
76597;SDS011;65486;53.144;18.134;2022-11-30T15:06:45;22.00;;;9.20;;
76597;SDS011;65486;53.144;18.134;2022-11-30T15:09:20;27.60;;;12.70;;
76597;SDS011;65486;53.144;18.134;2022-11-30T15:11:55;26.90;;;12.60;;
76597;SDS011;65486;53.144;18.134;2022-11-30T15:14:23;29.90;;;14.20;;
76597;SDS011;65486;53.144;18.134;2022-11-30T15:16:52;35.00;;;15.60;;
76597;SDS011;65486;53.144;18.134;2022-11-30T15:19:23;34.90;;;16.80;;
76597;SDS011;65486;53.144;18.134;2022-11-30T15:21:53;33.00;;;15.10;;
76597;SDS011;65486;53.144;18.134;2022-11-30T15:24:24;33.30;;;14.50;;
76597;SDS011;65486;53.144;18.134;2022-11-30T15:27:20;33.80;;;15.30;;
76597;SDS011;65486;53.144;18.134;2022-11-30T15:29:57;31.50;;;14.70;;
76597;SDS011;65486;53.144;18.134;2022-11-30T15:32:34;31.50;;;14.20;;
76597;SDS011;65486;53.144;18.134;2022-11-30T15:35:02;35.30;;;15.70;;
76597;SDS011;65486;53.144;18.134;2022-11-30T15:37:30;32.80;;;15.30;;
76597;SDS011;65486;53.144;18.134;2022-11-30T15:40:00;30.50;;;14.40;;
76597;SDS011;65486;53.144;18.134;2022-11-30T15:42:30;29.60;;;14.60;;
76597;SDS011;65486;53.144;18.134;2022-11-30T15:47:48;32.70;;;14.90;;
76597;SDS011;65486;53.144;18.134;2022-11-30T15:52:58;30.20;;;14.00;;
76597;SDS011;65486;53.144;18.134;2022-11-30T15:58:58;36.70;;;16.10;;
76597;SDS011;65486;53.144;18.134;2022-11-30T16:03:57;35.70;;;16.70;;
76597;SDS011;65486;53.144;18.134;2022-11-30T16:06:31;24.50;;;10.70;;
76597;SDS011;65486;53.144;18.134;2022-11-30T16:09:23;27.50;;;12.50;;
76597;SDS011;65486;53.144;18.134;2022-11-30T16:12:01;28.80;;;13.00;;
76597;SDS011;65486;53.144;18.134;2022-11-30T16:14:30;32.90;;;14.50;;
76597;SDS011;65486;53.144;18.134;2022-11-30T16:16:59;40.00;;;16.10;;
76597;SDS011;65486;53.144;18.134;2022-11-30T16:19:28;35.30;;;15.90;;
76597;SDS011;65486;53.144;18.134;2022-11-30T16:21:58;37.40;;;16.40;;
76597;SDS011;65486;53.144;18.134;2022-11-30T16:24:28;32.80;;;15.00;;
76597;SDS011;65486;53.144;18.134;2022-11-30T16:26:55;34.70;;;14.90;;
76597;SDS011;65486;53.144;18.134;2022-11-30T16:29:22;33.70;;;15.50;;
76597;SDS011;65486;53.144;18.134;2022-11-30T16:31:50;34.80;;;14.70;;
76597;SDS011;65486;53.144;18.134;2022-11-30T16:34:17;34.10;;;15.00;;
76597;SDS011;65486;53.144;18.134;2022-11-30T16:36:50;36.30;;;16.20;;
76597;SDS011;65486;53.144;18.134;2022-11-30T16:39:18;33.00;;;15.10;;
76597;SDS011;65486;53.144;18.134;2022-11-30T16:41:46;32.60;;;14.50;;
76597;SDS011;65486;53.144;18.134;2022-11-30T16:44:14;31.00;;;13.70;;
76597;SDS011;65486;53.144;18.134;2022-11-30T16:46:41;28.20;;;12.40;;
76597;SDS011;65486;53.144;18.134;2022-11-30T16:49:09;38.60;;;15.80;;
76597;SDS011;65486;53.144;18.134;2022-11-30T16:51:36;33.70;;;14.40;;
76597;SDS011;65486;53.144;18.134;2022-11-30T16:54:03;37.70;;;16.50;;
76597;SDS011;65486;53.144;18.134;2022-11-30T16:56:31;40.90;;;17.40;;
76597;SDS011;65486;53.144;18.134;2022-11-30T16:58:59;36.90;;;15.40;;
76597;SDS011;65486;53.144;18.134;2022-11-30T17:01:31;38.10;;;17.70;;
76597;SDS011;65486;53.144;18.134;2022-11-30T17:04:04;42.30;;;17.90;;
76597;SDS011;65486;53.144;18.134;2022-11-30T17:06:40;39.10;;;17.50;;